Time;durP1;ratioP1;P1;durP2;ratioP2;P2;SDS_P1;SDS_P2;PMS_P1;PMS_P2;Temp;Humidity;BMP_temperature;BMP_pressure;BME280_temperature;BME280_humidity;BME280_pressure;Samples;Min_cycle;Max_cycle;Signal;HPM_P1;HPM_P2
2021/07/30 00:01:47;;;;;;;12.70;7.20;;;;;;;;;;5007725;28;20225;-72
2021/07/30 00:04:12;;;;;;;16.95;8.88;;;;;;;;;;4995044;28;20214;-72
2021/07/30 00:06:37;;;;;;;12.95;8.32;;;;;;;;;;5002388;28;20393;-72
2021/07/30 00:09:02;;;;;;;14.13;9.32;;;;;;;;;;5004921;28;20176;-72
2021/07/30 00:11:27;;;;;;;13.30;8.25;;;;;;;;;;5009063;28;20657;-72
2021/07/30 00:13:53;;;;;;;12.50;8.43;;;;;;;;;;5007180;28;20270;-72
2021/07/30 00:16:18;;;;;;;12.55;8.68;;;;;;;;;;5003569;28;20206;-72
2021/07/30 00:18:43;;;;;;;10.97;8.33;;;;;;;;;;4999723;28;20241;-72
2021/07/30 00:21:08;;;;;;;11.57;8.00;;;;;;;;;;4999506;28;20242;-72
2021/07/30 00:23:33;;;;;;;14.00;8.95;;;;;;;;;;5000194;28;20673;-72
2021/07/30 00:26:02;;;;;;;12.75;7.97;;;;;;;;;;5003691;28;20210;-72
2021/07/30 00:28:27;;;;;;;13.07;8.27;;;;;;;;;;4996018;28;20251;-72
2021/07/30 00:30:53;;;;;;;15.37;8.77;;;;;;;;;;4996336;28;20223;-72
2021/07/30 00:33:18;;;;;;;12.43;8.65;;;;;;;;;;4999530;28;20205;-72
2021/07/30 00:35:43;;;;;;;18.17;8.93;;;;;;;;;;4997378;28;20237;-72
2021/07/30 00:38:08;;;;;;;10.40;7.68;;;;;;;;;;5001090;28;20258;-72
2021/07/30 00:40:34;;;;;;;13.57;9.32;;;;;;;;;;5002226;28;20242;-72
2021/07/30 00:43:00;;;;;;;14.07;7.57;;;;;;;;;;4996876;28;21671;-72
2021/07/30 00:45:25;;;;;;;17.00;9.07;;;;;;;;;;4996805;28;20281;-72
2021/07/30 00:47:50;;;;;;;12.32;8.15;;;;;;;;;;5003634;28;20178;-72
2021/07/30 00:50:15;;;;;;;14.60;8.35;;;;;;;;;;5008174;28;20676;-72
2021/07/30 00:52:41;;;;;;;14.32;8.07;;;;;;;;;;4998717;28;20183;-72
2021/07/30 00:55:07;;;;;;;15.25;8.30;;;;;;;;;;5006484;28;20219;-72
2021/07/30 00:57:32;;;;;;;15.93;8.77;;;;;;;;;;5001885;28;20604;-72
2021/07/30 00:59:57;;;;;;;15.55;7.85;;;;;;;;;;5001755;28;20191;-72
2021/07/30 01:02:23;;;;;;;11.88;7.60;;;;;;;;;;5003851;28;20179;-72
2021/07/30 01:04:48;;;;;;;11.55;7.72;;;;;;;;;;5002833;28;20282;-72
2021/07/30 01:07:13;;;;;;;10.40;7.90;;;;;;;;;;4999999;28;20707;-72
2021/07/30 01:09:38;;;;;;;14.15;8.48;;;;;;;;;;5002263;28;20697;-70
2021/07/30 01:12:04;;;;;;;13.05;7.72;;;;;;;;;;4995860;28;20198;-70
2021/07/30 01:14:29;;;;;;;14.13;8.57;;;;;;;;;;5004411;28;20183;-70
2021/07/30 01:16:54;;;;;;;14.07;7.60;;;;;;;;;;4998253;28;20529;-71
2021/07/30 01:19:21;;;;;;;10.75;7.35;;;;;;;;;;4998764;28;20168;-72
2021/07/30 01:21:47;;;;;;;11.10;7.68;;;;;;;;;;4994275;28;20295;-71
2021/07/30 01:24:12;;;;;;;12.05;7.70;;;;;;;;;;4996763;28;20622;-73
2021/07/30 01:26:37;;;;;;;12.23;7.70;;;;;;;;;;5002476;28;20179;-73
2021/07/30 01:29:02;;;;;;;14.50;8.25;;;;;;;;;;5005204;28;20194;-72
2021/07/30 01:31:28;;;;;;;15.23;8.30;;;;;;;;;;5013526;23;20314;-74
2021/07/30 01:33:53;;;;;;;15.63;7.90;;;;;;;;;;5002985;28;20608;-74
2021/07/30 01:36:18;;;;;;;17.55;8.30;;;;;;;;;;5006006;28;20171;-73
2021/07/30 01:38:43;;;;;;;18.33;8.90;;;;;;;;;;5002333;28;20452;-74
2021/07/30 01:41:11;;;;;;;14.20;7.40;;;;;;;;;;4997004;28;20546;-74
2021/07/30 01:43:37;;;;;;;13.50;8.13;;;;;;;;;;5001574;28;20426;-74
2021/07/30 01:46:03;;;;;;;12.70;7.45;;;;;;;;;;4998727;28;20195;-73
2021/07/30 01:48:28;;;;;;;12.30;7.47;;;;;;;;;;5004434;28;20175;-74
2021/07/30 01:50:53;;;;;;;13.65;7.55;;;;;;;;;;5003592;28;20290;-74
2021/07/30 01:53:18;;;;;;;11.60;7.35;;;;;;;;;;5001994;28;20534;-74
2021/07/30 01:55:44;;;;;;;12.93;7.85;;;;;;;;;;5000402;28;20176;-73
2021/07/30 01:58:09;;;;;;;11.18;8.07;;;;;;;;;;5006279;28;20225;-73
2021/07/30 02:00:34;;;;;;;12.13;7.20;;;;;;;;;;4996187;28;20290;-74
2021/07/30 02:02:59;;;;;;;9.63;7.47;;;;;;;;;;4994244;28;20194;-74
2021/07/30 02:05:24;;;;;;;10.40;7.60;;;;;;;;;;5000960;28;21612;-74
2021/07/30 02:07:50;;;;;;;11.63;7.90;;;;;;;;;;5003164;28;20187;-74
2021/07/30 02:10:15;;;;;;;17.33;7.93;;;;;;;;;;4997366;28;20179;-74
2021/07/30 02:15:24;;;;;;;10.63;7.53;;;;;;;;;;4993452;28;20314;-74
2021/07/30 02:17:49;;;;;;;13.15;6.90;;;;;;;;;;5004815;28;20281;-74
2021/07/30 02:20:14;;;;;;;15.32;9.90;;;;;;;;;;4992900;28;20183;-74
2021/07/30 02:22:39;;;;;;;10.82;7.47;;;;;;;;;;5012212;28;20277;-74
2021/07/30 02:25:05;;;;;;;9.20;6.50;;;;;;;;;;4996708;28;20732;-74
2021/07/30 02:27:30;;;;;;;11.38;7.68;;;;;;;;;;5001121;28;20578;-74
2021/07/30 02:29:55;;;;;;;14.20;7.35;;;;;;;;;;4994692;28;20186;-74
2021/07/30 02:32:20;;;;;;;9.95;8.00;;;;;;;;;;4996981;28;20215;-74
2021/07/30 02:34:45;;;;;;;12.07;7.65;;;;;;;;;;5006100;28;20175;-73
2021/07/30 02:37:10;;;;;;;16.40;8.07;;;;;;;;;;4996745;28;20194;-74
2021/07/30 02:39:36;;;;;;;11.30;6.80;;;;;;;;;;5001682;28;20184;-73
2021/07/30 02:42:01;;;;;;;12.90;7.57;;;;;;;;;;5001007;28;20198;-73
2021/07/30 02:44:26;;;;;;;14.55;7.72;;;;;;;;;;5001340;28;20660;-74
2021/07/30 02:46:51;;;;;;;13.98;6.78;;;;;;;;;;5000560;28;20171;-74
2021/07/30 02:49:16;;;;;;;11.70;6.83;;;;;;;;;;4998862;28;20660;-74
2021/07/30 02:51:42;;;;;;;12.98;7.78;;;;;;;;;;5004347;28;20221;-74
2021/07/30 02:54:07;;;;;;;11.80;7.38;;;;;;;;;;4997015;28;20261;-74
2021/07/30 02:56:32;;;;;;;9.57;6.43;;;;;;;;;;5001766;28;20210;-74
2021/07/30 02:58:57;;;;;;;11.80;7.80;;;;;;;;;;4997827;28;20273;-74
2021/07/30 03:01:22;;;;;;;11.93;6.80;;;;;;;;;;4996189;28;20203;-74
2021/07/30 03:03:47;;;;;;;10.47;7.23;;;;;;;;;;5003456;28;20345;-74
2021/07/30 03:06:13;;;;;;;12.40;8.23;;;;;;;;;;5000979;28;20183;-74
2021/07/30 03:08:38;;;;;;;12.43;8.30;;;;;;;;;;4994326;28;20258;-73
2021/07/30 03:11:03;;;;;;;11.93;7.80;;;;;;;;;;5005776;28;20227;-74
2021/07/30 03:13:28;;;;;;;11.80;8.27;;;;;;;;;;4998233;28;20175;-74
2021/07/30 03:15:54;;;;;;;14.87;7.87;;;;;;;;;;5001198;28;20183;-74
2021/07/30 03:18:19;;;;;;;11.97;8.67;;;;;;;;;;4995048;28;20184;-74
2021/07/30 03:20:44;;;;;;;13.60;9.07;;;;;;;;;;4995999;28;20683;-74
2021/07/30 03:23:09;;;;;;;13.33;8.07;;;;;;;;;;5001653;28;20195;-74
2021/07/30 03:25:35;;;;;;;9.43;7.90;;;;;;;;;;4998417;28;20663;-74
2021/07/30 03:28:00;;;;;;;15.77;7.97;;;;;;;;;;4998101;28;20175;-74
2021/07/30 03:30:25;;;;;;;13.60;8.43;;;;;;;;;;5009664;28;20204;-73
2021/07/30 03:32:50;;;;;;;12.33;7.70;;;;;;;;;;4994686;28;20293;-74
2021/07/30 03:35:15;;;;;;;12.80;8.30;;;;;;;;;;4995905;28;20218;-73
2021/07/30 03:37:41;;;;;;;15.53;8.13;;;;;;;;;;5002394;28;20194;-74
2021/07/30 03:40:06;;;;;;;12.97;8.77;;;;;;;;;;5004516;28;20191;-74
2021/07/30 03:42:31;;;;;;;12.77;8.13;;;;;;;;;;5001239;28;20245;-74
2021/07/30 03:44:57;;;;;;;17.57;9.63;;;;;;;;;;5007716;28;20199;-74
2021/07/30 03:47:22;;;;;;;14.53;9.40;;;;;;;;;;5001651;28;20207;-74
2021/07/30 03:49:47;;;;;;;15.43;9.00;;;;;;;;;;4995672;28;20266;-74
2021/07/30 03:52:12;;;;;;;15.67;8.77;;;;;;;;;;4993252;28;20207;-74
2021/07/30 03:54:37;;;;;;;19.60;9.10;;;;;;;;;;4995367;28;20211;-74
2021/07/30 03:57:03;;;;;;;12.90;8.93;;;;;;;;;;5001725;28;20603;-74
2021/07/30 03:59:28;;;;;;;15.23;8.87;;;;;;;;;;4999742;28;20222;-74
2021/07/30 04:01:53;;;;;;;13.20;9.00;;;;;;;;;;5006171;28;20210;-74
2021/07/30 04:04:18;;;;;;;14.27;9.37;;;;;;;;;;5003078;28;20241;-74
2021/07/30 04:06:44;;;;;;;15.93;9.70;;;;;;;;;;5007337;28;20187;-74
2021/07/30 04:09:13;;;;;;;15.50;9.32;;;;;;;;;;5004008;28;20192;-73
2021/07/30 04:11:38;;;;;;;14.10;8.43;;;;;;;;;;5000230;28;20194;-73
2021/07/30 04:14:05;;;;;;;17.47;9.47;;;;;;;;;;5003178;28;20573;-73
2021/07/30 04:16:30;;;;;;;12.73;8.50;;;;;;;;;;5001343;28;20629;-73
2021/07/30 04:18:55;;;;;;;16.15;9.30;;;;;;;;;;5003097;28;20354;-73
2021/07/30 04:21:20;;;;;;;12.57;8.63;;;;;;;;;;5010210;28;20646;-73
2021/07/30 04:23:46;;;;;;;13.88;8.50;;;;;;;;;;4999062;28;20199;-74
2021/07/30 04:26:11;;;;;;;18.42;9.80;;;;;;;;;;5003132;28;20723;-75
2021/07/30 04:28:36;;;;;;;16.00;8.53;;;;;;;;;;5003729;28;20198;-73
2021/07/30 04:31:04;;;;;;;11.38;8.15;;;;;;;;;;5001575;28;20219;-74
2021/07/30 04:33:31;;;;;;;12.75;8.40;;;;;;;;;;4995135;28;20271;-72
2021/07/30 04:35:56;;;;;;;11.45;8.70;;;;;;;;;;5013020;28;20233;-73
2021/07/30 04:38:21;;;;;;;14.18;8.52;;;;;;;;;;5004605;28;20176;-74
2021/07/30 04:40:46;;;;;;;14.85;9.18;;;;;;;;;;5008478;28;20238;-73
2021/07/30 04:43:11;;;;;;;13.95;8.00;;;;;;;;;;5001185;28;20189;-73
2021/07/30 04:45:37;;;;;;;13.05;8.85;;;;;;;;;;4998476;28;20678;-73
2021/07/30 04:48:02;;;;;;;13.15;7.95;;;;;;;;;;4993096;28;20198;-73
2021/07/30 04:50:27;;;;;;;11.55;8.18;;;;;;;;;;5006199;28;20204;-73
2021/07/30 04:52:54;;;;;;;12.93;9.35;;;;;;;;;;4994408;28;20605;-73
2021/07/30 04:55:19;;;;;;;21.60;9.75;;;;;;;;;;5003615;28;20645;-75
2021/07/30 04:57:44;;;;;;;12.68;8.10;;;;;;;;;;4997758;28;20268;-74
2021/07/30 05:00:09;;;;;;;11.90;8.18;;;;;;;;;;5007899;28;20186;-73
2021/07/30 05:02:34;;;;;;;15.88;8.43;;;;;;;;;;4994599;28;20272;-74
2021/07/30 05:05:00;;;;;;;9.38;7.82;;;;;;;;;;5023460;28;20671;-74
2021/07/30 05:07:25;;;;;;;11.63;7.83;;;;;;;;;;4999764;28;20760;-73
2021/07/30 05:09:50;;;;;;;11.05;8.65;;;;;;;;;;5001566;28;20477;-73
2021/07/30 05:12:15;;;;;;;12.45;8.60;;;;;;;;;;4997016;28;20288;-73
2021/07/30 05:14:41;;;;;;;10.90;8.13;;;;;;;;;;5000648;28;20187;-73
2021/07/30 05:17:06;;;;;;;13.10;7.60;;;;;;;;;;5018339;28;20299;-73
2021/07/30 05:19:31;;;;;;;11.82;7.82;;;;;;;;;;5001028;28;20645;-73
2021/07/30 05:21:57;;;;;;;11.00;7.18;;;;;;;;;;4999091;28;20198;-73
2021/07/30 05:24:22;;;;;;;15.52;7.72;;;;;;;;;;5004562;28;20668;-73
2021/07/30 05:26:47;;;;;;;12.17;7.40;;;;;;;;;;5005426;28;20183;-73
2021/07/30 05:29:12;;;;;;;15.90;7.83;;;;;;;;;;5000874;28;20437;-73
2021/07/30 05:31:37;;;;;;;10.20;7.78;;;;;;;;;;5002260;28;20555;-73
2021/07/30 05:34:03;;;;;;;13.35;6.95;;;;;;;;;;5006983;28;20183;-73
2021/07/30 05:36:28;;;;;;;17.30;8.82;;;;;;;;;;5008100;28;20182;-73
2021/07/30 05:38:53;;;;;;;9.33;7.00;;;;;;;;;;5002577;28;20273;-73
2021/07/30 05:41:19;;;;;;;11.85;6.53;;;;;;;;;;5004214;28;20835;-73
2021/07/30 05:43:45;;;;;;;15.77;8.30;;;;;;;;;;4998849;28;20187;-73
2021/07/30 05:46:10;;;;;;;13.48;6.53;;;;;;;;;;5008078;28;20683;-73
2021/07/30 05:48:36;;;;;;;8.55;6.40;;;;;;;;;;4997294;28;20182;-73
2021/07/30 05:51:01;;;;;;;14.88;6.63;;;;;;;;;;5001924;28;20855;-73
2021/07/30 05:53:26;;;;;;;11.38;6.90;;;;;;;;;;4993820;28;20233;-73
2021/07/30 05:55:51;;;;;;;9.70;6.00;;;;;;;;;;4999810;28;20318;-73
2021/07/30 05:58:17;;;;;;;10.83;6.20;;;;;;;;;;4993110;28;20557;-73
2021/07/30 06:00:42;;;;;;;10.98;6.15;;;;;;;;;;5004399;28;20826;-75
2021/07/30 06:03:07;;;;;;;13.30;6.87;;;;;;;;;;5000803;28;20183;-73
2021/07/30 06:05:32;;;;;;;10.38;6.18;;;;;;;;;;4999573;28;20460;-73
2021/07/30 06:07:58;;;;;;;8.20;6.25;;;;;;;;;;4993637;28;20210;-73
2021/07/30 06:10:24;;;;;;;11.43;5.97;;;;;;;;;;4999335;28;20259;-73
2021/07/30 06:12:49;;;;;;;11.25;6.07;;;;;;;;;;4992954;28;20205;-74
2021/07/30 06:15:14;;;;;;;10.98;5.82;;;;;;;;;;4995436;28;20184;-73
2021/07/30 06:17:39;;;;;;;9.93;6.03;;;;;;;;;;4998555;28;20285;-73
2021/07/30 06:20:06;;;;;;;11.20;5.25;;;;;;;;;;4992113;28;20267;-72
2021/07/30 06:22:34;;;;;;;9.45;6.00;;;;;;;;;;4995474;28;20187;-72
2021/07/30 06:24:59;;;;;;;7.65;5.93;;;;;;;;;;4993345;28;20620;-71
2021/07/30 06:27:24;;;;;;;9.77;5.82;;;;;;;;;;4992740;28;20176;-72
2021/07/30 06:29:49;;;;;;;9.30;5.30;;;;;;;;;;4986489;28;20191;-72
2021/07/30 06:32:14;;;;;;;11.40;6.20;;;;;;;;;;4993589;28;20957;-72
2021/07/30 06:34:40;;;;;;;13.52;6.05;;;;;;;;;;4996236;28;20443;-72
2021/07/30 06:37:05;;;;;;;8.85;5.60;;;;;;;;;;5000438;28;20274;-72
2021/07/30 06:39:30;;;;;;;8.40;5.00;;;;;;;;;;5002930;28;20183;-72
2021/07/30 06:41:55;;;;;;;11.20;5.40;;;;;;;;;;4993048;28;20527;-72
2021/07/30 06:44:22;;;;;;;11.40;4.70;;;;;;;;;;4999421;28;20456;-72
2021/07/30 06:46:47;;;;;;;9.27;4.90;;;;;;;;;;4993819;28;20424;-72
2021/07/30 06:49:13;;;;;;;8.33;5.67;;;;;;;;;;4992668;28;20178;-72
2021/07/30 06:51:38;;;;;;;10.48;4.80;;;;;;;;;;4992840;28;20579;-72
2021/07/30 06:54:03;;;;;;;10.57;5.53;;;;;;;;;;4998301;28;20187;-72
2021/07/30 06:56:28;;;;;;;7.70;5.03;;;;;;;;;;4997091;28;20523;-71
2021/07/30 06:58:53;;;;;;;9.52;5.53;;;;;;;;;;4995037;28;20218;-72
2021/07/30 07:01:19;;;;;;;14.43;7.22;;;;;;;;;;5009538;28;20396;-72
2021/07/30 07:03:44;;;;;;;11.20;5.77;;;;;;;;;;4993589;28;20221;-72
2021/07/30 07:06:14;;;;;;;11.13;5.20;;;;;;;;;;5004865;28;20424;-71
2021/07/30 07:08:39;;;;;;;10.60;5.13;;;;;;;;;;5003662;28;20989;-72
2021/07/30 07:11:04;;;;;;;8.93;5.73;;;;;;;;;;4997235;28;20334;-72
2021/07/30 07:13:29;;;;;;;11.48;5.30;;;;;;;;;;4993536;28;20417;-72
2021/07/30 07:15:54;;;;;;;7.22;5.00;;;;;;;;;;4991956;28;20187;-72
2021/07/30 07:18:20;;;;;;;9.63;6.50;;;;;;;;;;4994030;28;20194;-72
2021/07/30 07:20:46;;;;;;;6.33;4.97;;;;;;;;;;4995956;28;20854;-72
2021/07/30 07:23:12;;;;;;;8.32;5.63;;;;;;;;;;4992764;28;20910;-72
2021/07/30 07:25:37;;;;;;;16.80;5.22;;;;;;;;;;4993908;28;20199;-72
2021/07/30 07:28:02;;;;;;;7.40;5.38;;;;;;;;;;4994486;28;20180;-72
2021/07/30 07:32:59;;;;;;;10.38;5.82;;;;;;;;;;4956205;28;20227;-71
2021/07/30 07:35:24;;;;;;;8.63;5.53;;;;;;;;;;4956296;28;20181;-70
2021/07/30 07:37:49;;;;;;;12.37;5.60;;;;;;;;;;4943669;28;21113;-70
2021/07/30 07:40:14;;;;;;;9.00;5.22;;;;;;;;;;4937419;28;20434;-69
2021/07/30 07:42:40;;;;;;;6.70;4.80;;;;;;;;;;4942443;28;20219;-70
2021/07/30 07:45:05;;;;;;;8.35;4.88;;;;;;;;;;4942043;28;21014;-70
2021/07/30 07:47:31;;;;;;;8.35;4.75;;;;;;;;;;4937823;28;20204;-70
2021/07/30 07:49:56;;;;;;;10.35;5.18;;;;;;;;;;4939607;28;20184;-68
2021/07/30 07:52:21;;;;;;;9.83;4.50;;;;;;;;;;4939354;28;20205;-70
2021/07/30 07:54:47;;;;;;;10.90;5.30;;;;;;;;;;4940325;28;21066;-70
2021/07/30 07:57:12;;;;;;;6.78;4.70;;;;;;;;;;4940792;28;20440;-70
2021/07/30 07:59:37;;;;;;;9.82;5.00;;;;;;;;;;4939898;28;20272;-70
2021/07/30 08:02:06;;;;;;;7.88;4.20;;;;;;;;;;4932250;28;20232;-68
2021/07/30 08:04:31;;;;;;;8.63;5.30;;;;;;;;;;4936452;28;20271;-70
2021/07/30 08:06:56;;;;;;;12.35;5.38;;;;;;;;;;4940156;28;20184;-69
2021/07/30 08:09:22;;;;;;;8.80;4.53;;;;;;;;;;4940714;28;20186;-69
2021/07/30 08:11:47;;;;;;;9.77;4.20;;;;;;;;;;4938714;28;20960;-69
2021/07/30 08:14:12;;;;;;;8.57;4.67;;;;;;;;;;4936682;28;20675;-70
2021/07/30 08:16:37;;;;;;;10.17;4.80;;;;;;;;;;4936410;28;20439;-69
2021/07/30 08:19:03;;;;;;;9.23;4.97;;;;;;;;;;4943850;28;20836;-69
2021/07/30 08:21:30;;;;;;;8.18;4.70;;;;;;;;;;4940164;28;20458;-69
2021/07/30 08:23:55;;;;;;;6.85;4.43;;;;;;;;;;4940232;28;22037;-70
2021/07/30 08:26:20;;;;;;;6.90;4.20;;;;;;;;;;4940990;28;20324;-69
2021/07/30 08:28:46;;;;;;;7.23;4.77;;;;;;;;;;4937685;28;21865;-69
2021/07/30 08:31:11;;;;;;;10.13;5.57;;;;;;;;;;4944194;28;20527;-70
2021/07/30 08:33:36;;;;;;;6.70;4.77;;;;;;;;;;4957190;28;20481;-70
2021/07/30 08:36:01;;;;;;;7.50;4.75;;;;;;;;;;4939805;28;20422;-69
2021/07/30 08:38:27;;;;;;;7.65;4.53;;;;;;;;;;4962822;28;20173;-69
2021/07/30 08:40:52;;;;;;;7.33;4.03;;;;;;;;;;4961296;28;20682;-70
2021/07/30 08:43:17;;;;;;;7.27;3.87;;;;;;;;;;4958069;28;20434;-70
2021/07/30 08:45:49;;;;;;;7.80;3.97;;;;;;;;;;4960280;28;20466;-69
2021/07/30 08:48:15;;;;;;;7.15;3.92;;;;;;;;;;4960240;28;20196;-70
2021/07/30 08:50:40;;;;;;;8.63;3.60;;;;;;;;;;4955807;28;20195;-68
2021/07/30 08:53:05;;;;;;;7.80;3.42;;;;;;;;;;4956993;28;20283;-69
2021/07/30 08:55:31;;;;;;;6.93;3.13;;;;;;;;;;4956483;28;20837;-69
2021/07/30 08:57:57;;;;;;;7.15;3.67;;;;;;;;;;4963414;28;20208;-70
2021/07/30 09:00:22;;;;;;;6.00;3.30;;;;;;;;;;4957990;28;20272;-70
2021/07/30 09:02:47;;;;;;;7.88;3.45;;;;;;;;;;4954207;28;20955;-69
2021/07/30 09:05:32;;;;;;;6.73;3.60;;;;;;;;;;4958361;28;20220;-70
2021/07/30 09:08:01;;;;;;;7.15;3.20;;;;;;;;;;4959609;28;20279;-69
2021/07/30 09:10:30;;;;;;;6.38;3.22;;;;;;;;;;4957623;28;20184;-69
2021/07/30 09:13:13;;;;;;;4.38;3.35;;;;;;;;;;4956648;28;20199;-69
2021/07/30 09:15:39;;;;;;;5.38;3.22;;;;;;;;;;4956514;28;20219;-70
2021/07/30 09:18:04;;;;;;;6.40;3.55;;;;;;;;;;4956910;28;20192;-69
2021/07/30 09:20:29;;;;;;;5.15;2.95;;;;;;;;;;4956682;28;20271;-69
2021/07/30 09:22:54;;;;;;;4.15;2.45;;;;;;;;;;4956758;28;20215;-70
2021/07/30 09:25:36;;;;;;;8.40;2.93;;;;;;;;;;4957650;28;20207;-70
2021/07/30 09:28:05;;;;;;;4.93;3.17;;;;;;;;;;4979983;28;20187;-71
2021/07/30 09:30:30;;;;;;;7.00;3.53;;;;;;;;;;4943081;28;20192;-69
2021/07/30 09:32:56;;;;;;;7.85;3.35;;;;;;;;;;4966172;28;20566;-69
2021/07/30 09:35:21;;;;;;;3.77;2.70;;;;;;;;;;4976510;28;20193;-68
2021/07/30 09:37:46;;;;;;;5.40;3.08;;;;;;;;;;4958360;28;20654;-69
2021/07/30 09:40:21;;;;;;;4.80;3.30;;;;;;;;;;4958138;28;20176;-68
2021/07/30 09:42:46;;;;;;;5.78;3.40;;;;;;;;;;4941302;28;20822;-69
2021/07/30 09:45:13;;;;;;;5.07;2.80;;;;;;;;;;4958269;28;20212;-70
2021/07/30 09:47:48;;;;;;;5.65;2.58;;;;;;;;;;4956947;28;20492;-69
2021/07/30 09:50:14;;;;;;;5.97;3.20;;;;;;;;;;4955771;28;20180;-68
2021/07/30 09:52:41;;;;;;;3.53;3.20;;;;;;;;;;4955118;28;20936;-68
2021/07/30 09:55:06;;;;;;;6.90;2.88;;;;;;;;;;4956061;28;20740;-70
2021/07/30 09:57:32;;;;;;;4.22;2.70;;;;;;;;;;4955714;28;20188;-69
2021/07/30 09:59:59;;;;;;;3.42;2.90;;;;;;;;;;4942854;28;20219;-69
2021/07/30 10:02:28;;;;;;;5.00;3.08;;;;;;;;;;4966218;28;20262;-69
2021/07/30 10:04:53;;;;;;;5.35;2.83;;;;;;;;;;4961012;28;20197;-69
2021/07/30 10:07:20;;;;;;;8.13;3.25;;;;;;;;;;4967996;28;20243;-70
2021/07/30 10:09:53;;;;;;;4.50;3.10;;;;;;;;;;4959750;28;20210;-69
2021/07/30 10:12:18;;;;;;;5.20;2.80;;;;;;;;;;4956183;28;20643;-69
2021/07/30 10:14:44;;;;;;;4.90;3.47;;;;;;;;;;4965730;28;20275;-70
2021/07/30 10:17:12;;;;;;;5.20;3.45;;;;;;;;;;4960226;28;20606;-70
2021/07/30 10:19:38;;;;;;;3.90;3.08;;;;;;;;;;4954996;28;20195;-69
2021/07/30 10:22:05;;;;;;;8.00;3.50;;;;;;;;;;4959964;28;20215;-68
2021/07/30 10:24:33;;;;;;;5.88;3.28;;;;;;;;;;4956425;28;20347;-68
2021/07/30 10:27:04;;;;;;;7.60;3.38;;;;;;;;;;4964428;28;20196;-69
2021/07/30 10:29:55;;;;;;;5.97;3.30;;;;;;;;;;4968671;28;20176;-69
2021/07/30 10:32:40;;;;;;;4.50;3.45;;;;;;;;;;4957897;28;20769;-69
2021/07/30 10:35:05;;;;;;;4.45;3.22;;;;;;;;;;4956201;28;20192;-69
2021/07/30 10:37:32;;;;;;;8.60;3.97;;;;;;;;;;4956848;28;20201;-68
2021/07/30 10:40:13;;;;;;;4.90;4.18;;;;;;;;;;4958386;28;20185;-68
2021/07/30 10:42:57;;;;;;;4.03;3.50;;;;;;;;;;4959708;28;20208;-69
2021/07/30 10:45:22;;;;;;;4.13;3.35;;;;;;;;;;4957364;28;20221;-69
2021/07/30 10:48:08;;;;;;;6.35;3.45;;;;;;;;;;4965078;28;20179;-69
2021/07/30 10:50:55;;;;;;;4.88;3.17;;;;;;;;;;4980701;28;20231;-69
2021/07/30 10:53:39;;;;;;;3.88;3.17;;;;;;;;;;4958578;28;20191;-69
2021/07/30 10:56:27;;;;;;;5.15;3.55;;;;;;;;;;4948502;28;20672;-68
2021/07/30 10:58:53;;;;;;;6.07;3.72;;;;;;;;;;4957463;28;20196;-70
2021/07/30 11:01:22;;;;;;;7.00;3.90;;;;;;;;;;4964871;28;20242;-69
2021/07/30 11:03:53;;;;;;;6.90;3.83;;;;;;;;;;4967997;28;20320;-68
2021/07/30 11:06:26;;;;;;;5.50;3.60;;;;;;;;;;4960660;28;20184;-69
2021/07/30 11:09:00;;;;;;;5.53;3.67;;;;;;;;;;4964721;28;20175;-68
2021/07/30 11:11:45;;;;;;;5.15;3.95;;;;;;;;;;4979942;28;20294;-69
2021/07/30 11:14:13;;;;;;;6.78;3.10;;;;;;;;;;4973907;28;20230;-69
2021/07/30 11:16:41;;;;;;;7.97;3.55;;;;;;;;;;4960607;28;20184;-69
2021/07/30 11:19:07;;;;;;;6.78;3.00;;;;;;;;;;4961206;28;20671;-69
2021/07/30 11:21:33;;;;;;;4.85;3.30;;;;;;;;;;4961148;28;20208;-69
2021/07/30 11:23:58;;;;;;;4.17;2.97;;;;;;;;;;4952530;28;20199;-68
2021/07/30 11:26:24;;;;;;;3.58;3.28;;;;;;;;;;4967942;28;20936;-69
2021/07/30 11:28:54;;;;;;;4.10;3.15;;;;;;;;;;4960106;28;20559;-69
2021/07/30 11:31:20;;;;;;;6.13;3.58;;;;;;;;;;4960807;28;20280;-69
2021/07/30 11:33:45;;;;;;;6.47;3.17;;;;;;;;;;4962685;28;20192;-69
2021/07/30 11:36:14;;;;;;;4.97;3.30;;;;;;;;;;4960680;28;20906;-69
2021/07/30 11:38:48;;;;;;;6.32;3.45;;;;;;;;;;4974933;28;20967;-68
2021/07/30 11:41:14;;;;;;;5.30;4.03;;;;;;;;;;4961219;28;20200;-70
2021/07/30 11:43:58;;;;;;;5.85;3.67;;;;;;;;;;4961362;28;20177;-69
2021/07/30 11:46:24;;;;;;;6.72;4.28;;;;;;;;;;4959283;28;20192;-70
2021/07/30 11:48:49;;;;;;;6.88;3.70;;;;;;;;;;4939837;28;20184;-70
2021/07/30 11:51:14;;;;;;;4.93;4.15;;;;;;;;;;4961930;28;20845;-70
2021/07/30 11:53:39;;;;;;;4.73;4.10;;;;;;;;;;4959553;28;20611;-70
2021/07/30 11:56:05;;;;;;;5.38;3.90;;;;;;;;;;4961662;28;20432;-70
2021/07/30 11:58:30;;;;;;;6.13;4.07;;;;;;;;;;4958455;28;20568;-70
2021/07/30 12:01:07;;;;;;;7.70;4.10;;;;;;;;;;4960172;28;20532;-70
2021/07/30 12:03:33;;;;;;;7.30;4.18;;;;;;;;;;4961686;28;20437;-70
2021/07/30 12:06:00;;;;;;;6.43;4.13;;;;;;;;;;4962365;28;20216;-70
2021/07/30 12:08:25;;;;;;;4.53;3.90;;;;;;;;;;4959361;28;20497;-69
2021/07/30 12:10:51;;;;;;;5.82;3.78;;;;;;;;;;4959519;28;20638;-70
2021/07/30 12:13:18;;;;;;;5.13;3.90;;;;;;;;;;4959603;28;20192;-70
2021/07/30 12:15:43;;;;;;;6.82;3.85;;;;;;;;;;4959085;28;20232;-70
2021/07/30 12:18:08;;;;;;;6.32;3.78;;;;;;;;;;4958352;28;20342;-70
2021/07/30 12:20:34;;;;;;;3.70;3.28;;;;;;;;;;4957978;28;20274;-69
2021/07/30 12:23:11;;;;;;;8.48;3.80;;;;;;;;;;4958422;28;20659;-69
2021/07/30 12:25:38;;;;;;;6.53;3.92;;;;;;;;;;4959335;28;20200;-69
2021/07/30 12:28:05;;;;;;;3.67;3.33;;;;;;;;;;4961257;28;20665;-69
2021/07/30 12:30:30;;;;;;;6.25;3.35;;;;;;;;;;4960437;28;20665;-69
2021/07/30 12:32:55;;;;;;;5.00;3.53;;;;;;;;;;4959509;28;20297;-70
2021/07/30 12:35:30;;;;;;;5.20;3.97;;;;;;;;;;4960596;28;20492;-69
2021/07/30 12:38:03;;;;;;;4.93;3.55;;;;;;;;;;4958050;28;20270;-69
2021/07/30 12:40:29;;;;;;;5.10;3.90;;;;;;;;;;4959703;28;20181;-69
2021/07/30 12:43:12;;;;;;;6.18;3.80;;;;;;;;;;4961094;28;20212;-69
2021/07/30 12:45:49;;;;;;;4.30;3.08;;;;;;;;;;4959976;28;20212;-69
2021/07/30 12:48:17;;;;;;;5.55;3.60;;;;;;;;;;4961132;28;20171;-70
2021/07/30 12:50:42;;;;;;;7.30;3.10;;;;;;;;;;4958403;28;20207;-70
2021/07/30 12:53:07;;;;;;;4.30;3.38;;;;;;;;;;4958715;28;20255;-69
2021/07/30 12:56:02;;;;;;;4.20;3.67;;;;;;;;;;4962160;28;20267;-70
2021/07/30 12:58:27;;;;;;;5.95;3.33;;;;;;;;;;4952763;28;21021;-68
2021/07/30 13:00:52;;;;;;;3.60;3.30;;;;;;;;;;4957946;28;20221;-69
2021/07/30 13:03:18;;;;;;;4.18;3.78;;;;;;;;;;4956612;28;20590;-68
2021/07/30 13:05:45;;;;;;;4.28;3.22;;;;;;;;;;4963764;28;20259;-69
2021/07/30 13:08:11;;;;;;;6.13;3.25;;;;;;;;;;4957760;28;20193;-69
2021/07/30 13:10:36;;;;;;;4.33;3.30;;;;;;;;;;4958606;28;20575;-69
2021/07/30 13:13:02;;;;;;;6.63;4.30;;;;;;;;;;4951159;28;20423;-70
2021/07/30 13:15:28;;;;;;;6.43;3.83;;;;;;;;;;4960498;28;20180;-68
2021/07/30 13:17:53;;;;;;;6.85;4.60;;;;;;;;;;4959448;28;20246;-69
2021/07/30 13:20:18;;;;;;;10.02;5.20;;;;;;;;;;4956735;28;20184;-69
2021/07/30 13:22:43;;;;;;;9.82;5.38;;;;;;;;;;4957200;28;20334;-69
2021/07/30 13:25:09;;;;;;;6.67;6.03;;;;;;;;;;4959433;28;20228;-71
2021/07/30 13:27:34;;;;;;;8.57;6.43;;;;;;;;;;4959029;28;20438;-72
2021/07/30 13:29:59;;;;;;;8.35;7.53;;;;;;;;;;4959124;28;20252;-69
2021/07/30 13:32:24;;;;;;;11.67;8.40;;;;;;;;;;4978045;23;20239;-74
2021/07/30 13:34:50;;;;;;;9.98;8.57;;;;;;;;;;4976599;28;20449;-73
2021/07/30 13:37:15;;;;;;;10.20;9.15;;;;;;;;;;4971303;28;20699;-74
2021/07/30 13:39:40;;;;;;;10.98;9.32;;;;;;;;;;4980437;28;20188;-74
2021/07/30 13:42:05;;;;;;;11.93;10.37;;;;;;;;;;4973252;28;20633;-69
2021/07/30 13:44:30;;;;;;;14.63;10.70;;;;;;;;;;4974863;28;21970;-69
2021/07/30 13:46:56;;;;;;;13.18;10.55;;;;;;;;;;4979122;28;20183;-69
2021/07/30 13:49:27;;;;;;;12.55;11.02;;;;;;;;;;5035448;28;20563;-69
2021/07/30 13:51:52;;;;;;;11.50;10.25;;;;;;;;;;5020644;28;20218;-69
2021/07/30 13:54:17;;;;;;;11.67;10.47;;;;;;;;;;5022911;28;20835;-69
2021/07/30 13:56:43;;;;;;;10.47;9.47;;;;;;;;;;5021149;28;20436;-71
2021/07/30 13:59:08;;;;;;;10.97;9.80;;;;;;;;;;5022162;28;20525;-67
2021/07/30 14:01:33;;;;;;;12.13;10.40;;;;;;;;;;5023514;28;20439;-69
2021/07/30 14:03:58;;;;;;;9.57;8.50;;;;;;;;;;5061344;22;20267;-68
2021/07/30 14:06:23;;;;;;;9.30;8.17;;;;;;;;;;5050990;28;20551;-68
2021/07/30 14:08:49;;;;;;;9.00;7.40;;;;;;;;;;5044537;28;20590;-69
2021/07/30 14:11:14;;;;;;;8.20;7.30;;;;;;;;;;5047102;28;20457;-69
2021/07/30 14:13:40;;;;;;;7.07;6.38;;;;;;;;;;5047865;28;20327;-69
2021/07/30 14:16:05;;;;;;;6.80;6.05;;;;;;;;;;5047663;28;20181;-69
2021/07/30 14:18:30;;;;;;;6.88;5.85;;;;;;;;;;5051651;28;20213;-69
2021/07/30 14:20:55;;;;;;;6.07;5.33;;;;;;;;;;5044114;28;20180;-69
2021/07/30 14:23:20;;;;;;;6.20;5.60;;;;;;;;;;5046901;28;20441;-69
2021/07/30 14:25:46;;;;;;;7.00;5.57;;;;;;;;;;5050361;28;20763;-69
2021/07/30 14:28:11;;;;;;;6.25;5.57;;;;;;;;;;5048415;28;20534;-68
2021/07/30 14:30:36;;;;;;;6.10;5.50;;;;;;;;;;5045467;28;22143;-68
2021/07/30 14:33:02;;;;;;;5.90;5.40;;;;;;;;;;5052555;28;20249;-68
2021/07/30 14:35:27;;;;;;;6.18;5.57;;;;;;;;;;5049165;28;20422;-68
2021/07/30 14:37:52;;;;;;;5.47;4.97;;;;;;;;;;5049283;28;20196;-68